Time;durP1;ratioP1;P1;durP2;ratioP2;P2;SDS_P1;SDS_P2;PMS_P1;PMS_P2;Temp;Humidity;BMP_temperature;BMP_pressure;BME280_temperature;BME280_humidity;BME280_pressure;Samples;Min_cycle;Max_cycle;Signal;HPM_P1;HPM_P2
2020/12/16 00:01:03;;;;;;;4.10;2.70;;;;;;;18.81;55.23;101455.81;4816130;29;20026;-72
2020/12/16 00:03:30;;;;;;;4.80;3.42;;;;;;;18.79;55.18;101457.53;4786942;29;20102;-72
2020/12/16 00:05:55;;;;;;;5.18;3.33;;;;;;;18.77;55.23;101459.28;4815933;29;22000;-72
2020/12/16 00:08:20;;;;;;;4.32;3.20;;;;;;;18.75;55.16;101458.38;4800168;29;20050;-73
2020/12/16 00:10:46;;;;;;;4.80;4.22;;;;;;;18.74;55.09;101458.38;4769866;29;20039;-73
2020/12/16 00:13:11;;;;;;;4.45;3.05;;;;;;;18.75;55.28;101452.25;4799452;29;20038;-72
2020/12/16 00:15:37;;;;;;;4.95;3.00;;;;;;;18.77;55.45;101463.63;4815577;29;20039;-72
2020/12/16 00:18:03;;;;;;;4.22;3.05;;;;;;;18.76;55.22;101459.25;4788954;29;20038;-74
2020/12/16 00:20:29;;;;;;;3.95;3.45;;;;;;;18.75;55.50;101462.75;4800652;29;20091;-73
2020/12/16 00:22:54;;;;;;;3.55;2.90;;;;;;;18.76;55.35;101464.50;4805952;29;20093;-73
2020/12/16 00:25:19;;;;;;;3.92;3.33;;;;;;;18.74;55.23;101455.75;4787090;29;20990;-72
2020/12/16 00:27:45;;;;;;;4.82;3.20;;;;;;;18.75;55.30;101454.88;4816163;29;20042;-72
2020/12/16 00:30:10;;;;;;;3.55;2.65;;;;;;;18.70;55.20;101459.22;4826132;29;20026;-73
2020/12/16 00:32:37;;;;;;;4.80;3.08;;;;;;;18.74;55.14;101471.47;4821925;29;20037;-73
2020/12/16 00:35:07;;;;;;;3.05;2.50;;;;;;;18.74;55.30;101472.34;4822580;29;20410;-73
2020/12/16 00:37:45;;;;;;;4.90;3.03;;;;;;;18.72;55.08;101466.22;4791662;29;20050;-73
2020/12/16 00:40:13;;;;;;;2.92;2.63;;;;;;;18.71;55.11;101469.72;4802926;29;20038;-73
2020/12/16 00:42:45;;;;;;;3.42;2.90;;;;;;;18.72;55.32;101474.09;4821109;29;20032;-73
2020/12/16 00:45:10;;;;;;;4.22;2.92;;;;;;;18.71;55.21;101466.22;4804619;29;20050;-74
2020/12/16 00:47:36;;;;;;;3.38;2.65;;;;;;;18.69;55.13;101471.47;4817540;29;20054;-73
2020/12/16 00:50:04;;;;;;;3.47;2.90;;;;;;;18.68;55.01;101467.09;4802232;29;20043;-74
2020/12/16 00:52:29;;;;;;;4.30;2.65;;;;;;;18.70;55.24;101474.94;4804095;29;20050;-73
2020/12/16 00:54:55;;;;;;;3.67;2.88;;;;;;;18.67;55.26;101470.59;4815930;29;20039;-74
2020/12/16 00:57:21;;;;;;;3.88;2.88;;;;;;;18.64;55.15;101467.94;4804478;29;20027;-73
2020/12/16 00:59:47;;;;;;;3.97;3.13;;;;;;;18.67;55.14;101474.94;4803936;29;20487;-72
2020/12/16 01:02:12;;;;;;;4.63;3.13;;;;;;;18.65;55.16;101466.22;4805625;29;20188;-72
2020/12/16 01:04:37;;;;;;;3.75;2.58;;;;;;;18.66;54.90;101465.34;4806650;29;20080;-73
2020/12/16 01:07:02;;;;;;;3.80;3.05;;;;;;;18.68;55.36;101468.84;4785465;29;20069;-73
2020/12/16 01:09:28;;;;;;;4.00;3.10;;;;;;;18.67;55.13;101472.34;4807069;29;20573;-73
2020/12/16 01:11:53;;;;;;;3.13;2.78;;;;;;;18.67;55.19;101485.44;4787110;29;20046;-73
2020/12/16 01:14:19;;;;;;;3.70;2.88;;;;;;;18.67;54.99;101482.81;4809780;29;20540;-72
2020/12/16 01:16:44;;;;;;;4.38;3.33;;;;;;;18.66;55.01;101489.78;4804497;29;20030;-72
2020/12/16 01:19:10;;;;;;;5.07;3.65;;;;;;;18.65;54.98;101482.81;4803680;29;20045;-72
2020/12/16 01:21:39;;;;;;;6.18;3.40;;;;;;;18.65;55.05;101485.41;4789048;29;20054;-72
2020/12/16 01:24:07;;;;;;;3.58;2.40;;;;;;;18.65;54.89;101484.53;4799373;29;20042;-73
2020/12/16 01:26:46;;;;;;;4.13;3.47;;;;;;;18.64;55.01;101488.91;4799849;29;20035;-72
2020/12/16 01:29:12;;;;;;;4.18;2.78;;;;;;;18.65;55.09;101484.53;4806641;29;20041;-72
2020/12/16 01:31:48;;;;;;;3.65;2.85;;;;;;;18.65;54.98;101484.53;4805741;29;20406;-72
2020/12/16 01:34:13;;;;;;;3.20;2.80;;;;;;;18.64;55.13;101490.66;4805216;29;20046;-72
2020/12/16 01:36:40;;;;;;;4.43;3.08;;;;;;;18.61;54.85;101490.63;4819293;29;20510;-72
2020/12/16 01:39:08;;;;;;;3.65;2.65;;;;;;;18.65;54.81;101501.13;4818036;29;20047;-72
2020/12/16 01:41:33;;;;;;;3.42;2.53;;;;;;;18.59;54.96;101494.97;4802357;29;20139;-72
2020/12/16 01:44:10;;;;;;;3.33;2.60;;;;;;;18.63;54.85;101508.09;4787908;29;20121;-72
2020/12/16 01:46:35;;;;;;;3.15;2.83;;;;;;;18.63;54.90;101508.09;4804918;29;20490;-72
2020/12/16 01:49:00;;;;;;;3.15;2.65;;;;;;;18.60;55.04;101499.34;4798719;29;20042;-72
2020/12/16 01:51:26;;;;;;;2.95;2.50;;;;;;;18.63;54.91;101504.59;4801444;29;20113;-72
2020/12/16 01:53:52;;;;;;;3.20;2.67;;;;;;;18.59;54.82;101501.09;4791945;29;20185;-72
2020/12/16 01:56:19;;;;;;;3.25;2.13;;;;;;;18.60;55.06;101500.22;4803522;29;20097;-73
2020/12/16 01:58:48;;;;;;;3.83;2.97;;;;;;;18.54;54.98;101493.19;4783154;29;20061;-72
2020/12/16 02:01:18;;;;;;;3.78;3.00;;;;;;;18.60;54.70;101505.47;4790348;29;20065;-72
2020/12/16 02:03:46;;;;;;;3.75;2.92;;;;;;;18.59;55.24;101501.09;4802081;29;20072;-72
2020/12/16 02:06:13;;;;;;;3.35;2.70;;;;;;;18.59;55.06;101502.84;4802104;29;20042;-72
2020/12/16 02:08:42;;;;;;;2.90;2.60;;;;;;;18.59;54.99;101503.72;4799028;29;20042;-73
2020/12/16 02:11:08;;;;;;;3.03;2.72;;;;;;;18.57;55.00;101489.69;4802353;29;20520;-72
2020/12/16 02:13:33;;;;;;;3.38;3.03;;;;;;;18.57;54.76;101493.19;4754065;29;20062;-72
2020/12/16 02:15:59;;;;;;;3.30;2.65;;;;;;;18.56;54.69;101491.44;4802680;29;20482;-72
2020/12/16 02:18:24;;;;;;;3.97;2.97;;;;;;;18.59;54.72;101495.84;4800845;29;20360;-73
2020/12/16 02:20:50;;;;;;;3.22;2.63;;;;;;;18.56;54.77;101493.22;4798992;29;20042;-73
2020/12/16 02:23:19;;;;;;;3.40;2.90;;;;;;;18.56;54.83;101494.06;4800182;29;20043;-73
2020/12/16 02:25:45;;;;;;;3.28;2.97;;;;;;;18.59;54.95;101501.09;4786593;29;20031;-73
2020/12/16 02:28:11;;;;;;;3.42;2.83;;;;;;;18.57;54.66;101506.28;4800374;29;20043;-73
2020/12/16 02:30:36;;;;;;;2.70;2.30;;;;;;;18.59;54.73;101503.72;4818571;29;20034;-73
2020/12/16 02:33:02;;;;;;;4.13;3.35;;;;;;;18.56;54.40;101494.06;4800758;29;20491;-73
2020/12/16 02:35:27;;;;;;;3.33;2.80;;;;;;;18.57;54.58;101503.66;4800464;29;20037;-73
2020/12/16 02:37:52;;;;;;;5.97;2.40;;;;;;;18.59;54.77;101498.47;4770234;29;20463;-73
2020/12/16 02:40:18;;;;;;;2.72;2.17;;;;;;;18.57;54.68;101495.81;4801184;29;20483;-73
2020/12/16 02:42:43;;;;;;;3.15;2.72;;;;;;;18.59;54.61;101508.06;4771711;29;20061;-72
2020/12/16 02:45:08;;;;;;;3.63;2.80;;;;;;;18.54;54.68;101500.19;4803451;29;20118;-72
2020/12/16 02:47:34;;;;;;;3.30;2.75;;;;;;;18.55;54.47;101510.66;4790740;29;20062;-72
2020/12/16 02:49:59;;;;;;;3.75;2.75;;;;;;;18.55;54.63;101505.44;4801193;29;20105;-72
2020/12/16 02:52:24;;;;;;;3.83;2.58;;;;;;;18.55;54.62;101515.91;4802982;29;20035;-72
2020/12/16 02:54:50;;;;;;;3.83;2.60;;;;;;;18.55;54.57;101513.28;4817656;29;20035;-72
2020/12/16 02:57:15;;;;;;;3.72;2.70;;;;;;;18.55;54.57;101509.78;4795961;29;20062;-72
2020/12/16 02:59:54;;;;;;;3.92;2.85;;;;;;;18.54;54.78;101510.66;4806648;29;20068;-72
2020/12/16 03:02:19;;;;;;;3.22;2.50;;;;;;;18.50;54.78;101507.13;4799377;29;20450;-72
2020/12/16 03:04:44;;;;;;;2.85;2.53;;;;;;;18.54;54.57;101511.53;4786638;29;20069;-72
2020/12/16 03:07:10;;;;;;;3.88;2.97;;;;;;;18.54;54.71;101511.53;4810912;29;20051;-72
2020/12/16 03:09:35;;;;;;;3.42;2.70;;;;;;;18.54;54.54;101515.91;4797778;29;20507;-73
2020/12/16 03:12:00;;;;;;;3.35;2.90;;;;;;;18.54;54.59;101510.66;4784607;29;20134;-72
2020/12/16 03:14:26;;;;;;;3.20;2.88;;;;;;;18.48;54.52;101498.38;4796409;29;20583;-72
2020/12/16 03:16:55;;;;;;;3.22;2.90;;;;;;;18.48;54.66;101500.13;4800330;29;20371;-72
2020/12/16 03:19:20;;;;;;;4.03;2.65;;;;;;;18.48;54.56;101497.50;4801846;29;20444;-73
2020/12/16 03:21:45;;;;;;;3.45;2.60;;;;;;;18.51;54.57;101500.16;4808417;29;20116;-72
2020/12/16 03:24:11;;;;;;;4.13;3.28;;;;;;;18.50;54.61;101493.16;4807056;29;20123;-72
2020/12/16 03:26:40;;;;;;;3.60;2.83;;;;;;;18.48;54.49;101487.91;4773123;29;20178;-72
2020/12/16 03:29:06;;;;;;;4.57;3.30;;;;;;;18.46;54.51;101489.63;4805970;29;20491;-73
2020/12/16 03:31:31;;;;;;;3.53;2.78;;;;;;;18.46;54.28;101488.75;4768466;29;20043;-73
2020/12/16 03:33:59;;;;;;;6.70;3.30;;;;;;;18.48;54.50;101494.88;4796657;29;20039;-73
2020/12/16 03:36:25;;;;;;;5.20;3.10;;;;;;;18.49;54.55;101497.53;4782252;29;20038;-72
2020/12/16 03:38:50;;;;;;;2.65;2.42;;;;;;;18.46;54.56;101494.00;4799395;29;20505;-72
2020/12/16 03:41:16;;;;;;;3.92;3.13;;;;;;;18.47;54.41;101496.63;4798791;29;20035;-72
2020/12/16 03:43:47;;;;;;;3.30;2.92;;;;;;;18.50;54.59;101495.78;4811215;29;21922;-72
2020/12/16 03:46:13;;;;;;;3.58;3.20;;;;;;;18.46;54.74;101486.16;4797826;29;20074;-73
2020/12/16 03:48:42;;;;;;;4.50;3.10;;;;;;;18.43;54.53;101489.66;4802088;29;20078;-72
2020/12/16 03:51:09;;;;;;;3.83;2.45;;;;;;;18.46;54.88;101489.63;4807937;29;20067;-73
2020/12/16 03:53:36;;;;;;;3.25;2.90;;;;;;;18.47;54.52;101498.38;4804663;29;20121;-72
2020/12/16 03:56:06;;;;;;;3.97;3.05;;;;;;;18.43;54.56;101492.28;4815554;29;20425;-72
2020/12/16 03:58:32;;;;;;;3.45;2.70;;;;;;;18.45;54.57;101502.72;4802750;29;20546;-72
2020/12/16 04:00:57;;;;;;;3.88;2.42;;;;;;;18.45;54.45;101500.97;4781949;29;20046;-72
2020/12/16 04:03:22;;;;;;;3.13;2.60;;;;;;;18.45;54.60;101505.34;4782620;29;20066;-72
2020/12/16 04:05:48;;;;;;;3.35;2.85;;;;;;;18.44;54.52;101504.47;4799424;29;20368;-72
2020/12/16 04:08:13;;;;;;;3.47;2.80;;;;;;;18.45;54.44;101508.84;4805785;29;20118;-72
2020/12/16 04:10:38;;;;;;;3.58;3.20;;;;;;;18.45;54.33;101505.34;4801380;29;20039;-72
2020/12/16 04:13:04;;;;;;;3.10;2.67;;;;;;;18.44;54.48;101499.22;4804517;29;20066;-72
2020/12/16 04:15:29;;;;;;;5.15;3.30;;;;;;;18.40;54.58;101494.88;4797557;29;20059;-72
2020/12/16 04:17:54;;;;;;;3.15;2.78;;;;;;;18.43;54.56;101504.47;4768768;29;20113;-72
2020/12/16 04:20:20;;;;;;;3.33;2.70;;;;;;;18.40;54.41;101499.22;4796348;29;20042;-72
2020/12/16 04:22:45;;;;;;;3.85;3.42;;;;;;;18.40;54.44;101513.19;4801152;29;20426;-72
2020/12/16 04:25:10;;;;;;;3.42;2.85;;;;;;;18.38;54.51;101500.94;4798842;29;20084;-72
2020/12/16 04:27:36;;;;;;;3.92;2.97;;;;;;;18.39;54.47;101507.94;4793784;29;20479;-73
2020/12/16 04:30:03;;;;;;;3.00;2.42;;;;;;;18.39;54.46;101498.34;4800270;29;20033;-72
2020/12/16 04:32:29;;;;;;;3.92;2.85;;;;;;;18.41;54.63;101503.59;4801394;29;20034;-72
2020/12/16 04:34:54;;;;;;;3.42;3.03;;;;;;;18.37;54.42;101496.56;4800751;29;20690;-72
2020/12/16 04:37:19;;;;;;;4.07;3.22;;;;;;;18.40;54.45;101509.69;4802186;29;20050;-72
2020/12/16 04:39:45;;;;;;;4.57;3.70;;;;;;;18.39;54.67;101510.56;4779553;29;20043;-72
2020/12/16 04:42:10;;;;;;;4.45;2.95;;;;;;;18.36;54.58;101506.19;4799050;29;20554;-72
2020/12/16 04:44:36;;;;;;;3.30;2.75;;;;;;;18.40;54.25;101509.69;4811178;29;20045;-72
2020/12/16 04:47:02;;;;;;;3.22;2.78;;;;;;;18.37;54.59;101502.69;4784772;29;20059;-72
2020/12/16 04:49:27;;;;;;;3.30;3.00;;;;;;;18.39;54.52;101511.44;4805724;29;20043;-72
2020/12/16 04:51:53;;;;;;;3.92;2.40;;;;;;;18.37;54.41;101502.69;4799275;29;20027;-72
2020/12/16 04:54:19;;;;;;;3.85;2.78;;;;;;;18.38;54.53;101511.44;4799016;29;20096;-72
2020/12/16 04:56:45;;;;;;;3.53;3.22;;;;;;;18.37;54.32;101509.66;4800377;29;20088;-72
2020/12/16 04:59:10;;;;;;;3.17;2.53;;;;;;;18.37;54.54;101509.66;4799160;29;20087;-72
2020/12/16 05:01:41;;;;;;;3.05;2.75;;;;;;;18.34;54.38;101507.03;4797872;29;20050;-72
2020/12/16 05:04:07;;;;;;;3.97;3.00;;;;;;;18.32;54.50;101499.16;4798666;29;20039;-72
2020/12/16 05:06:33;;;;;;;3.30;2.92;;;;;;;18.35;54.37;101501.81;4815921;29;20042;-73
2020/12/16 05:09:12;;;;;;;2.80;2.50;;;;;;;18.30;54.48;101495.69;4800448;29;20413;-72
2020/12/16 05:11:45;;;;;;;3.05;2.25;;;;;;;18.32;54.61;101501.78;4795960;29;20042;-72
2020/12/16 05:14:12;;;;;;;;;;;;;;;18.35;54.30;101507.03;4802771;29;20031;-72
2020/12/16 05:17:01;;;;;;;5.93;2.50;;;;;;;18.33;54.25;101500.91;4805254;29;19924;-72
2020/12/16 05:19:40;;;;;;;3.65;2.97;;;;;;;18.34;54.44;101502.66;4785493;29;20099;-73
2020/12/16 05:22:16;;;;;;;3.78;2.88;;;;;;;18.33;54.04;101500.91;4794402;29;20038;-72
2020/12/16 05:24:45;;;;;;;3.42;2.78;;;;;;;18.32;54.33;101507.00;4799345;29;20035;-73
2020/12/16 05:27:16;;;;;;;3.65;3.25;;;;;;;18.31;54.12;101509.63;4800050;29;20039;-73
2020/12/16 05:29:42;;;;;;;4.18;2.53;;;;;;;18.32;54.49;101509.63;4799925;29;20035;-79
2020/12/16 05:32:15;;;;;;;3.65;3.08;;;;;;;18.34;54.28;101510.53;4800166;29;20046;-74
2020/12/16 05:34:41;;;;;;;5.28;2.90;;;;;;;18.40;53.93;101502.72;4801360;29;20026;-72
2020/12/16 05:37:24;;;;;;;4.35;2.60;;;;;;;18.63;53.80;101512.47;4798942;29;20084;-72
2020/12/16 05:39:59;;;;;;;2.97;2.65;;;;;;;18.63;53.45;101505.50;4814576;29;20027;-73
2020/12/16 05:42:26;;;;;;;5.30;2.72;;;;;;;18.63;53.59;101505.50;4813267;29;20035;-72
2020/12/16 05:44:54;;;;;;;2.92;2.58;;;;;;;18.76;53.63;101509.03;4815983;29;20129;-74
2020/12/16 05:47:19;;;;;;;2.88;2.53;;;;;;;18.84;53.33;101515.19;4799682;29;20399;-74
2020/12/16 05:49:44;;;;;;;4.63;2.72;;;;;;;18.82;53.31;101512.59;4799405;29;20042;-74
2020/12/16 05:52:10;;;;;;;4.05;2.92;;;;;;;18.80;53.43;101513.44;4812595;29;20043;-75
2020/12/16 05:54:36;;;;;;;2.97;2.35;;;;;;;18.91;53.32;101516.97;4801714;29;20027;-75
2020/12/16 05:57:17;;;;;;;3.42;2.40;;;;;;;18.90;53.23;101523.97;4801371;29;20166;-75
2020/12/16 06:00:02;;;;;;;3.47;2.55;;;;;;;18.88;53.11;101525.69;4803519;29;20597;-75
2020/12/16 06:02:43;;;;;;;2.70;2.10;;;;;;;18.91;53.26;101528.34;4804170;29;20483;-75
2020/12/16 06:05:13;;;;;;;2.70;2.38;;;;;;;18.96;53.38;101525.72;4803724;29;20042;-75
2020/12/16 06:07:47;;;;;;;3.00;2.70;;;;;;;18.96;53.07;101530.06;4804275;29;20128;-76
2020/12/16 06:10:13;;;;;;;2.65;2.15;;;;;;;18.87;53.48;101526.56;4802547;29;20062;-75
2020/12/16 06:12:41;;;;;;;2.90;2.50;;;;;;;18.91;53.37;101530.06;4803046;29;20046;-75
2020/12/16 06:15:15;;;;;;;3.05;2.45;;;;;;;18.93;53.31;101533.59;4800040;29;20063;-75
2020/12/16 06:17:41;;;;;;;;;;;;;;;18.92;53.51;101526.59;4804539;29;20035;-72
2020/12/16 06:20:09;;;;;;;3.40;2.40;;;;;;;18.89;53.46;101529.19;4800425;29;20421;-72
2020/12/16 06:22:36;;;;;;;4.72;2.28;;;;;;;18.94;53.43;101529.22;4798853;29;20054;-71
2020/12/16 06:25:07;;;;;;;3.50;2.40;;;;;;;18.83;53.26;101516.91;4805562;29;20038;-72
2020/12/16 06:27:47;;;;;;;3.17;2.28;;;;;;;18.91;53.32;101524.84;4802934;29;20125;-72
2020/12/16 06:30:29;;;;;;;3.08;2.40;;;;;;;19.00;53.42;101524.84;4780026;29;20125;-72
2020/12/16 06:33:14;;;;;;;3.92;2.42;;;;;;;18.95;53.45;101521.38;4816143;29;20031;-72
2020/12/16 06:35:40;;;;;;;2.40;2.00;;;;;;;18.95;53.53;101533.59;4811600;29;20050;-72
2020/12/16 06:38:15;;;;;;;2.83;2.38;;;;;;;19.00;53.49;101531.84;4801580;29;20066;-72
2020/12/16 06:40:46;;;;;;;3.28;2.67;;;;;;;19.01;53.13;101533.59;4802167;29;20047;-72
2020/12/16 06:43:30;;;;;;;2.90;2.25;;;;;;;18.97;53.53;101531.81;4802724;29;20046;-72
2020/12/16 06:45:56;;;;;;;5.03;3.35;;;;;;;19.00;53.32;101530.09;4803985;29;20042;-72
2020/12/16 06:48:36;;;;;;;3.05;1.95;;;;;;;19.02;53.17;101525.75;4802708;29;20403;-72
2020/12/16 06:51:21;;;;;;;3.03;2.00;;;;;;;18.98;53.31;101525.72;4801936;29;20039;-72
2020/12/16 06:53:49;;;;;;;3.03;2.55;;;;;;;19.01;53.37;101524.00;4815350;29;20087;-72
2020/12/16 06:56:19;;;;;;;3.08;2.13;;;;;;;19.04;53.44;101523.13;4804824;29;20521;-72
2020/12/16 06:58:45;;;;;;;2.97;2.03;;;;;;;18.99;53.23;101517.88;4786903;29;20039;-72
2020/12/16 07:01:16;;;;;;;3.30;2.00;;;;;;;19.02;53.40;101520.50;4801265;29;20092;-72
2020/12/16 07:03:41;;;;;;;4.97;2.30;;;;;;;19.08;53.14;101522.28;4802161;29;20039;-72
2020/12/16 07:06:11;;;;;;;3.33;2.10;;;;;;;19.03;53.14;101524.88;4814775;29;20038;-72
2020/12/16 07:08:37;;;;;;;2.60;1.98;;;;;;;19.01;53.41;101515.25;4801675;29;20383;-72
2020/12/16 07:11:05;;;;;;;2.67;1.80;;;;;;;19.09;53.14;101526.63;4817477;29;20069;-72
2020/12/16 07:13:35;;;;;;;3.92;2.17;;;;;;;19.05;53.19;101522.28;4800512;29;20030;-72
2020/12/16 07:16:10;;;;;;;3.67;2.33;;;;;;;19.05;53.32;101528.38;4801165;29;20395;-72
2020/12/16 07:18:38;;;;;;;2.47;1.95;;;;;;;19.11;53.23;101524.91;4799852;29;20057;-72
2020/12/16 07:21:07;;;;;;;5.22;2.92;;;;;;;19.10;53.08;101526.63;4800938;29;20051;-72
2020/12/16 07:23:45;;;;;;;2.63;1.90;;;;;;;19.07;53.31;101534.50;4797201;29;20039;-72
2020/12/16 07:26:17;;;;;;;2.78;2.03;;;;;;;19.08;53.07;101519.66;4801576;29;20150;-72
2020/12/16 07:28:43;;;;;;;2.40;1.70;;;;;;;19.10;53.04;101524.03;4797164;29;20023;-72
2020/12/16 07:31:08;;;;;;;3.13;2.20;;;;;;;19.01;53.29;101515.25;4798296;29;20050;-72
2020/12/16 07:33:35;;;;;;;3.00;1.90;;;;;;;18.98;53.48;101530.97;4797407;29;20379;-72
2020/12/16 07:36:02;;;;;;;2.53;2.10;;;;;;;18.94;53.32;101532.72;4799413;29;20027;-72
2020/12/16 07:38:28;;;;;;;3.42;2.35;;;;;;;18.89;53.46;101535.31;4798337;29;20034;-72
2020/12/16 07:40:56;;;;;;;4.90;2.70;;;;;;;18.82;53.70;101530.03;4817526;29;20082;-72
2020/12/16 07:43:23;;;;;;;3.72;2.88;;;;;;;18.77;53.51;101532.63;4802049;29;20062;-72
2020/12/16 07:46:21;;;;;;;4.60;2.80;;;;;;;18.72;53.63;101531.72;4805891;29;20418;-72
2020/12/16 07:48:46;;;;;;;4.60;3.33;;;;;;;18.69;53.17;101539.59;4787318;29;20387;-76
2020/12/16 07:51:13;;;;;;;5.53;3.80;;;;;;;18.68;53.44;101539.56;4796340;29;20053;-75
2020/12/16 07:53:45;;;;;;;5.68;3.80;;;;;;;18.67;53.11;101529.97;4797359;29;20035;-75
2020/12/16 07:56:10;;;;;;;7.68;4.28;;;;;;;18.63;53.10;101541.28;4806873;29;20395;-75
2020/12/16 07:58:36;;;;;;;5.80;3.30;;;;;;;18.65;53.00;101542.19;4788787;29;20037;-75
2020/12/16 08:01:19;;;;;;;5.93;4.05;;;;;;;18.66;53.21;101538.69;4801651;29;20499;-75
2020/12/16 08:03:46;;;;;;;8.68;4.32;;;;;;;18.65;53.13;101539.56;4782245;29;20491;-76
2020/12/16 08:06:13;;;;;;;5.15;3.60;;;;;;;18.66;53.13;101538.69;4788351;29;20138;-75
2020/12/16 08:08:52;;;;;;;4.88;3.75;;;;;;;18.64;53.30;101543.91;4818945;29;20038;-73
2020/12/16 08:11:22;;;;;;;8.43;3.40;;;;;;;18.61;53.53;101543.91;4800697;29;20042;-78
2020/12/16 08:13:48;;;;;;;12.35;8.38;;;;;;;18.54;51.47;101542.09;4799406;29;20035;-74
2020/12/16 08:16:14;;;;;;;19.42;6.85;;;;;;;18.50;51.11;101540.31;4802402;29;20118;-73
2020/12/16 08:18:43;;;;;;;6.55;3.80;;;;;;;18.56;52.59;101541.19;4786702;29;20515;-74
2020/12/16 08:21:19;;;;;;;10.57;4.38;;;;;;;18.68;52.55;101537.84;4802677;29;20482;-74
2020/12/16 08:23:45;;;;;;;6.18;3.92;;;;;;;18.70;52.67;101535.19;4801612;29;20159;-73
2020/12/16 08:26:11;;;;;;;6.38;3.35;;;;;;;18.68;52.72;101535.22;4798459;29;20072;-74
2020/12/16 08:28:37;;;;;;;4.90;3.53;;;;;;;18.75;52.63;101533.50;4804945;29;20034;-73
2020/12/16 08:31:03;;;;;;;7.60;4.55;;;;;;;18.80;52.10;101547.50;4782998;29;20455;-73
2020/12/16 08:33:30;;;;;;;5.28;3.65;;;;;;;18.76;52.15;101533.50;4770597;29;20107;-75
2020/12/16 08:36:01;;;;;;;6.90;4.00;;;;;;;18.83;52.50;101523.91;4804995;29;20030;-77
2020/12/16 08:38:35;;;;;;;6.10;2.97;;;;;;;18.95;52.41;101526.59;4812312;29;20155;-72
2020/12/16 08:41:04;;;;;;;4.72;2.97;;;;;;;18.93;52.55;101530.97;4806207;29;20529;-73
2020/12/16 08:43:42;;;;;;;4.18;3.17;;;;;;;18.94;52.73;101539.69;4805804;29;20559;-72
2020/12/16 08:46:19;;;;;;;7.18;2.88;;;;;;;18.98;52.63;101538.81;4803883;29;20031;-72
2020/12/16 08:48:56;;;;;;;5.63;3.20;;;;;;;18.95;52.80;101546.69;4805682;29;22395;-72
2020/12/16 08:51:39;;;;;;;3.95;3.13;;;;;;;18.92;52.88;101551.06;4806726;29;20051;-73
2020/12/16 08:54:09;;;;;;;5.22;3.63;;;;;;;19.03;52.47;101558.09;4805673;29;20062;-72
2020/12/16 08:56:39;;;;;;;6.00;3.03;;;;;;;19.00;52.80;101563.31;4804592;29;20026;-72
2020/12/16 08:59:09;;;;;;;11.38;2.83;;;;;;;18.99;53.07;101564.16;4816586;29;20482;-72
2020/12/16 09:01:36;;;;;;;4.72;2.90;;;;;;;19.03;53.02;101553.72;4807204;29;20502;-72
2020/12/16 09:04:02;;;;;;;4.55;2.72;;;;;;;19.03;52.83;101542.34;4808561;29;20035;-72
2020/12/16 09:06:27;;;;;;;4.22;2.75;;;;;;;18.98;52.93;101546.69;4809082;29;20038;-73
2020/12/16 09:08:52;;;;;;;3.85;2.65;;;;;;;19.05;52.99;101553.72;4801805;29;20089;-72
2020/12/16 09:11:20;;;;;;;3.58;2.33;;;;;;;19.08;52.73;101557.25;4810113;29;20043;-73
2020/12/16 09:13:47;;;;;;;3.47;2.33;;;;;;;19.03;53.04;101544.97;4806935;29;20034;-73
2020/12/16 09:16:32;;;;;;;4.47;2.53;;;;;;;18.97;53.16;101539.69;4805827;29;20079;-73
2020/12/16 09:18:58;;;;;;;6.10;2.63;;;;;;;18.96;53.26;101540.56;4790255;29;20516;-73
2020/12/16 09:21:34;;;;;;;2.85;2.15;;;;;;;18.91;53.28;101538.81;4799040;29;20071;-73
2020/12/16 09:24:05;;;;;;;3.92;2.30;;;;;;;18.86;53.25;101542.28;4802917;29;20031;-73
2020/12/16 09:26:50;;;;;;;4.18;2.50;;;;;;;18.86;53.56;101551.00;4792971;29;20042;-73
2020/12/16 09:29:27;;;;;;;3.83;2.60;;;;;;;18.85;53.43;101557.13;4804729;29;20069;-74
2020/12/16 09:32:07;;;;;;;5.00;2.42;;;;;;;18.90;53.29;101555.41;4807822;29;20113;-73
2020/12/16 09:34:40;;;;;;;2.85;2.20;;;;;;;19.03;53.14;101579.06;4804058;29;20092;-73
2020/12/16 09:37:16;;;;;;;4.22;2.63;;;;;;;19.12;53.17;101586.94;4819451;29;20387;-73
2020/12/16 09:39:43;;;;;;;3.55;2.53;;;;;;;19.09;53.27;101589.53;4810269;29;20107;-73
2020/12/16 09:42:15;;;;;;;4.20;2.35;;;;;;;19.10;52.98;101591.31;4801795;29;20043;-73
2020/12/16 09:44:41;;;;;;;3.75;2.35;;;;;;;19.02;52.95;101586.03;4806724;29;20027;-73
2020/12/16 09:47:24;;;;;;;4.38;2.45;;;;;;;19.04;53.27;101581.69;4811148;29;20518;-73
2020/12/16 09:50:01;;;;;;;5.30;2.30;;;;;;;19.10;52.91;101571.22;4795191;29;20390;-73
2020/12/16 09:52:45;;;;;;;2.92;2.42;;;;;;;19.04;52.89;101575.56;4800489;29;20458;-73
2020/12/16 09:55:21;;;;;;;2.80;2.10;;;;;;;19.05;53.15;101574.69;4803737;29;20145;-73
2020/12/16 09:58:01;;;;;;;3.55;2.35;;;;;;;19.11;52.82;101564.22;4804442;29;20034;-73
2020/12/16 10:00:28;;;;;;;3.97;2.00;;;;;;;19.08;52.70;101566.84;4809582;29;20058;-73
2020/12/16 10:03:01;;;;;;;2.70;2.50;;;;;;;19.07;53.18;101565.09;4819740;29;20034;-73
2020/12/16 10:05:27;;;;;;;4.45;2.05;;;;;;;19.12;53.10;101566.84;4787420;29;20425;-73
2020/12/16 10:07:53;;;;;;;2.83;1.90;;;;;;;19.10;52.67;101562.47;4773880;29;20035;-73
2020/12/16 10:10:19;;;;;;;4.72;2.17;;;;;;;19.07;52.98;101552.88;4793038;29;20035;-73
2020/12/16 10:12:44;;;;;;;2.92;2.20;;;;;;;19.10;53.22;101557.22;4799108;29;20514;-73
2020/12/16 10:15:10;;;;;;;4.38;2.72;;;;;;;19.11;53.04;101564.22;4810838;29;20042;-73
2020/12/16 10:17:35;;;;;;;3.85;2.60;;;;;;;19.06;52.86;101558.97;4789717;29;20042;-73
2020/12/16 10:20:02;;;;;;;2.38;1.63;;;;;;;19.12;52.97;101552.88;4775881;29;20486;-73
2020/12/16 10:22:28;;;;;;;3.05;1.85;;;;;;;19.13;52.87;101550.25;4807297;29;20072;-73
2020/12/16 10:24:53;;;;;;;2.92;2.10;;;;;;;19.12;52.57;101555.47;4811341;29;20063;-73
2020/12/16 10:27:19;;;;;;;3.40;2.42;;;;;;;19.06;53.06;101551.13;4778696;29;20491;-73
2020/12/16 10:29:44;;;;;;;3.47;2.50;;;;;;;19.03;52.89;101545.84;4803593;29;20031;-73
2020/12/16 10:32:10;;;;;;;3.47;2.55;;;;;;;19.00;53.13;101543.22;4775167;30;20138;-73
2020/12/16 10:34:35;;;;;;;2.97;2.40;;;;;;;18.96;53.10;101551.03;4798290;29;20506;-73
2020/12/16 10:37:01;;;;;;;2.58;2.08;;;;;;;18.96;53.28;101545.81;4791044;29;20067;-73
2020/12/16 10:39:26;;;;;;;3.78;2.20;;;;;;;18.92;53.28;101537.06;4806483;29;20035;-73
2020/12/16 10:41:53;;;;;;;5.00;2.75;;;;;;;18.91;53.21;101541.44;4798180;29;20030;-73
2020/12/16 10:44:20;;;;;;;4.45;2.25;;;;;;;18.89;53.32;101542.28;4812121;29;20058;-73
2020/12/16 10:46:48;;;;;;;3.85;2.47;;;;;;;18.89;53.42;101545.78;4804613;29;20496;-73
2020/12/16 10:49:14;;;;;;;2.55;2.30;;;;;;;18.85;53.26;101538.78;4807406;29;20554;-73
2020/12/16 10:51:39;;;;;;;3.25;2.25;;;;;;;18.86;53.34;101540.53;4802353;29;20070;-73
2020/12/16 10:54:04;;;;;;;2.67;2.13;;;;;;;18.82;53.18;101544.03;4804407;29;20103;-73
2020/12/16 10:56:30;;;;;;;3.85;2.47;;;;;;;18.84;53.39;101542.25;4787553;29;20058;-73
2020/12/16 10:58:55;;;;;;;3.22;2.58;;;;;;;18.83;53.47;101531.75;4812865;29;20372;-73
2020/12/16 11:01:21;;;;;;;3.28;2.22;;;;;;;18.76;53.34;101523.03;4811920;29;20059;-73
2020/12/16 11:03:47;;;;;;;3.10;2.20;;;;;;;18.81;53.41;101528.28;4811905;29;20096;-73
2020/12/16 11:06:15;;;;;;;4.18;2.22;;;;;;;18.77;53.34;101524.78;4807570;29;20447;-73
2020/12/16 11:08:42;;;;;;;3.42;2.53;;;;;;;18.77;53.26;101516.91;4782325;29;20047;-73
2020/12/16 11:11:07;;;;;;;3.78;2.55;;;;;;;18.77;53.35;101519.53;4815510;29;20054;-73
2020/12/16 11:13:33;;;;;;;2.58;2.28;;;;;;;18.76;53.22;101503.81;4802346;29;20073;-73
2020/12/16 11:15:58;;;;;;;3.17;2.58;;;;;;;18.78;53.11;101507.31;4789418;29;20426;-73
2020/12/16 11:18:24;;;;;;;3.20;2.30;;;;;;;18.79;53.17;101502.06;4809296;29;20045;-73
2020/12/16 11:20:49;;;;;;;3.55;2.20;;;;;;;18.77;53.28;101498.56;4786802;29;20050;-73
2020/12/16 11:23:14;;;;;;;3.08;2.22;;;;;;;18.74;53.07;101489.81;4820533;29;20510;-72
2020/12/16 11:25:40;;;;;;;3.08;2.33;;;;;;;18.76;53.16;101486.34;4786151;29;20108;-72
2020/12/16 11:28:05;;;;;;;2.60;2.17;;;;;;;18.77;53.18;101490.72;4798398;29;20110;-73
2020/12/16 11:30:30;;;;;;;3.50;3.05;;;;;;;18.76;53.22;101477.59;4803992;29;20150;-73
2020/12/16 11:32:56;;;;;;;3.92;3.03;;;;;;;18.77;53.11;101485.47;4772841;29;20042;-73